sensor_id;sensor_type;location;lat;lon;timestamp;P1;durP1;ratioP1;P2;durP2;ratioP2
739;SDS011;354;42.694;23.336;2023-02-28T00:01:04;36.23;;;32.70;;
739;SDS011;354;42.694;23.336;2023-02-28T00:03:30;41.73;;;37.70;;
739;SDS011;354;42.694;23.336;2023-02-28T00:05:55;36.93;;;33.23;;
739;SDS011;354;42.694;23.336;2023-02-28T00:08:21;36.33;;;32.80;;
739;SDS011;354;42.694;23.336;2023-02-28T00:10:46;34.93;;;31.47;;
739;SDS011;354;42.694;23.336;2023-02-28T00:13:11;35.87;;;32.00;;
739;SDS011;354;42.694;23.336;2023-02-28T00:15:38;35.83;;;32.43;;
739;SDS011;354;42.694;23.336;2023-02-28T00:18:03;31.97;;;28.80;;
739;SDS011;354;42.694;23.336;2023-02-28T00:20:28;35.17;;;31.63;;
739;SDS011;354;42.694;23.336;2023-02-28T00:22:54;36.10;;;32.63;;
739;SDS011;354;42.694;23.336;2023-02-28T00:25:21;32.93;;;29.83;;
739;SDS011;354;42.694;23.336;2023-02-28T00:27:48;33.07;;;29.77;;
739;SDS011;354;42.694;23.336;2023-02-28T00:30:16;34.83;;;31.27;;
739;SDS011;354;42.694;23.336;2023-02-28T00:32:43;34.27;;;30.73;;
739;SDS011;354;42.694;23.336;2023-02-28T00:35:09;34.50;;;30.93;;
739;SDS011;354;42.694;23.336;2023-02-28T00:37:35;34.27;;;29.50;;
739;SDS011;354;42.694;23.336;2023-02-28T00:40:00;33.43;;;30.07;;
739;SDS011;354;42.694;23.336;2023-02-28T00:42:27;33.33;;;29.87;;
739;SDS011;354;42.694;23.336;2023-02-28T00:44:52;34.53;;;31.23;;
739;SDS011;354;42.694;23.336;2023-02-28T00:47:18;35.57;;;31.77;;
739;SDS011;354;42.694;23.336;2023-02-28T00:49:43;35.10;;;31.33;;
739;SDS011;354;42.694;23.336;2023-02-28T00:52:08;34.93;;;31.10;;
739;SDS011;354;42.694;23.336;2023-02-28T00:54:34;33.07;;;29.63;;
739;SDS011;354;42.694;23.336;2023-02-28T00:57:00;37.47;;;33.57;;
739;SDS011;354;42.694;23.336;2023-02-28T00:59:26;36.07;;;30.87;;
739;SDS011;354;42.694;23.336;2023-02-28T01:01:51;31.30;;;27.77;;
739;SDS011;354;42.694;23.336;2023-02-28T01:04:17;34.87;;;30.97;;
739;SDS011;354;42.694;23.336;2023-02-28T01:06:42;33.77;;;30.13;;
739;SDS011;354;42.694;23.336;2023-02-28T01:09:08;36.93;;;32.17;;
739;SDS011;354;42.694;23.336;2023-02-28T01:11:34;36.93;;;32.83;;
739;SDS011;354;42.694;23.336;2023-02-28T01:14:00;38.27;;;32.33;;
739;SDS011;354;42.694;23.336;2023-02-28T01:16:26;37.77;;;32.10;;
739;SDS011;354;42.694;23.336;2023-02-28T01:18:51;32.47;;;28.90;;
739;SDS011;354;42.694;23.336;2023-02-28T01:21:18;31.47;;;28.10;;
739;SDS011;354;42.694;23.336;2023-02-28T01:23:45;36.53;;;31.93;;
739;SDS011;354;42.694;23.336;2023-02-28T01:26:15;35.50;;;31.43;;
739;SDS011;354;42.694;23.336;2023-02-28T01:28:48;38.80;;;30.63;;
739;SDS011;354;42.694;23.336;2023-02-28T01:31:14;35.07;;;30.70;;
739;SDS011;354;42.694;23.336;2023-02-28T01:33:43;34.87;;;31.00;;
739;SDS011;354;42.694;23.336;2023-02-28T01:36:10;33.73;;;30.10;;
739;SDS011;354;42.694;23.336;2023-02-28T01:38:37;37.40;;;30.87;;
739;SDS011;354;42.694;23.336;2023-02-28T01:41:03;36.00;;;32.00;;
739;SDS011;354;42.694;23.336;2023-02-28T01:46:07;41.93;;;34.30;;
739;SDS011;354;42.694;23.336;2023-02-28T01:48:34;38.23;;;32.83;;
739;SDS011;354;42.694;23.336;2023-02-28T01:51:11;41.70;;;35.27;;
739;SDS011;354;42.694;23.336;2023-02-28T01:53:44;42.20;;;33.27;;
739;SDS011;354;42.694;23.336;2023-02-28T01:56:13;42.77;;;33.57;;
739;SDS011;354;42.694;23.336;2023-02-28T01:58:46;43.27;;;36.13;;
739;SDS011;354;42.694;23.336;2023-02-28T02:01:12;40.47;;;32.13;;
739;SDS011;354;42.694;23.336;2023-02-28T02:03:46;41.60;;;36.27;;
739;SDS011;354;42.694;23.336;2023-02-28T02:06:27;42.90;;;34.03;;
739;SDS011;354;42.694;23.336;2023-02-28T02:08:55;52.63;;;37.47;;
739;SDS011;354;42.694;23.336;2023-02-28T02:11:21;59.37;;;39.60;;
739;SDS011;354;42.694;23.336;2023-02-28T02:16:55;55.73;;;39.37;;
739;SDS011;354;42.694;23.336;2023-02-28T02:31:48;52.20;;;38.23;;
739;SDS011;354;42.694;23.336;2023-02-28T02:36:42;55.93;;;37.73;;
739;SDS011;354;42.694;23.336;2023-02-28T02:41:53;53.33;;;36.07;;
739;SDS011;354;42.694;23.336;2023-02-28T02:47:06;58.03;;;39.57;;
739;SDS011;354;42.694;23.336;2023-02-28T02:49:36;54.87;;;34.53;;
739;SDS011;354;42.694;23.336;2023-02-28T02:52:09;48.60;;;35.07;;
739;SDS011;354;42.694;23.336;2023-02-28T02:54:40;47.90;;;35.50;;
739;SDS011;354;42.694;23.336;2023-02-28T02:57:13;51.33;;;35.97;;
739;SDS011;354;42.694;23.336;2023-02-28T02:59:44;54.20;;;36.87;;
739;SDS011;354;42.694;23.336;2023-02-28T03:02:11;49.93;;;37.97;;
739;SDS011;354;42.694;23.336;2023-02-28T03:05:00;53.67;;;35.70;;
739;SDS011;354;42.694;23.336;2023-02-28T03:07:27;51.53;;;36.33;;
739;SDS011;354;42.694;23.336;2023-02-28T03:09:53;54.10;;;37.63;;
739;SDS011;354;42.694;23.336;2023-02-28T03:12:20;49.37;;;33.77;;
739;SDS011;354;42.694;23.336;2023-02-28T03:15:08;47.47;;;33.17;;
739;SDS011;354;42.694;23.336;2023-02-28T03:17:46;52.27;;;37.43;;
739;SDS011;354;42.694;23.336;2023-02-28T03:20:35;45.70;;;31.40;;
739;SDS011;354;42.694;23.336;2023-02-28T03:23:21;42.97;;;32.20;;
739;SDS011;354;42.694;23.336;2023-02-28T03:26:06;45.47;;;31.67;;
739;SDS011;354;42.694;23.336;2023-02-28T03:28:40;49.17;;;32.93;;
739;SDS011;354;42.694;23.336;2023-02-28T03:31:21;40.73;;;30.13;;
739;SDS011;354;42.694;23.336;2023-02-28T03:34:08;43.93;;;30.70;;
739;SDS011;354;42.694;23.336;2023-02-28T03:36:38;41.00;;;29.93;;
739;SDS011;354;42.694;23.336;2023-02-28T03:39:22;44.33;;;28.23;;
739;SDS011;354;42.694;23.336;2023-02-28T03:44:28;50.27;;;30.97;;
739;SDS011;354;42.694;23.336;2023-02-28T03:47:03;44.63;;;32.07;;
739;SDS011;354;42.694;23.336;2023-02-28T03:49:40;44.57;;;30.90;;
739;SDS011;354;42.694;23.336;2023-02-28T03:52:27;54.00;;;32.83;;
739;SDS011;354;42.694;23.336;2023-02-28T03:55:00;46.70;;;34.17;;
739;SDS011;354;42.694;23.336;2023-02-28T03:57:38;46.77;;;32.43;;
739;SDS011;354;42.694;23.336;2023-02-28T04:00:20;41.97;;;31.27;;
739;SDS011;354;42.694;23.336;2023-02-28T04:02:49;46.93;;;30.73;;
739;SDS011;354;42.694;23.336;2023-02-28T04:05:18;46.40;;;30.73;;
739;SDS011;354;42.694;23.336;2023-02-28T04:07:44;47.60;;;33.50;;
739;SDS011;354;42.694;23.336;2023-02-28T04:10:10;46.47;;;29.33;;
739;SDS011;354;42.694;23.336;2023-02-28T04:12:37;48.00;;;31.43;;
739;SDS011;354;42.694;23.336;2023-02-28T04:15:02;52.97;;;32.33;;
739;SDS011;354;42.694;23.336;2023-02-28T04:17:28;53.07;;;32.27;;
739;SDS011;354;42.694;23.336;2023-02-28T04:19:53;51.43;;;31.83;;
739;SDS011;354;42.694;23.336;2023-02-28T04:22:21;49.27;;;30.90;;
739;SDS011;354;42.694;23.336;2023-02-28T04:24:46;46.33;;;30.90;;
739;SDS011;354;42.694;23.336;2023-02-28T04:27:12;43.63;;;31.40;;
739;SDS011;354;42.694;23.336;2023-02-28T04:29:37;44.03;;;29.17;;
739;SDS011;354;42.694;23.336;2023-02-28T04:32:03;44.43;;;29.93;;
739;SDS011;354;42.694;23.336;2023-02-28T04:34:30;45.43;;;29.07;;
739;SDS011;354;42.694;23.336;2023-02-28T04:36:56;45.23;;;26.83;;
739;SDS011;354;42.694;23.336;2023-02-28T04:39:22;56.80;;;31.93;;
739;SDS011;354;42.694;23.336;2023-02-28T04:41:49;43.97;;;30.03;;
739;SDS011;354;42.694;23.336;2023-02-28T04:44:15;50.40;;;30.83;;
739;SDS011;354;42.694;23.336;2023-02-28T04:46:41;43.97;;;28.10;;
739;SDS011;354;42.694;23.336;2023-02-28T04:49:08;51.50;;;32.00;;
739;SDS011;354;42.694;23.336;2023-02-28T04:51:35;53.13;;;32.97;;
739;SDS011;354;42.694;23.336;2023-02-28T04:54:01;50.53;;;34.37;;
739;SDS011;354;42.694;23.336;2023-02-28T04:56:26;52.37;;;32.17;;
739;SDS011;354;42.694;23.336;2023-02-28T04:58:51;60.37;;;35.53;;
739;SDS011;354;42.694;23.336;2023-02-28T05:01:19;65.60;;;37.47;;
739;SDS011;354;42.694;23.336;2023-02-28T05:03:45;70.17;;;37.60;;
739;SDS011;354;42.694;23.336;2023-02-28T05:06:11;70.40;;;35.03;;
739;SDS011;354;42.694;23.336;2023-02-28T05:08:37;61.47;;;36.07;;
739;SDS011;354;42.694;23.336;2023-02-28T05:11:02;62.50;;;35.47;;
739;SDS011;354;42.694;23.336;2023-02-28T05:13:29;68.13;;;38.03;;
739;SDS011;354;42.694;23.336;2023-02-28T05:15:54;68.43;;;36.63;;
739;SDS011;354;42.694;23.336;2023-02-28T05:18:20;63.17;;;35.60;;
739;SDS011;354;42.694;23.336;2023-02-28T05:20:46;60.13;;;34.10;;
739;SDS011;354;42.694;23.336;2023-02-28T05:23:12;53.60;;;31.57;;
739;SDS011;354;42.694;23.336;2023-02-28T05:25:38;52.83;;;31.83;;
739;SDS011;354;42.694;23.336;2023-02-28T05:28:04;49.60;;;32.17;;
739;SDS011;354;42.694;23.336;2023-02-28T05:30:30;50.07;;;31.67;;
739;SDS011;354;42.694;23.336;2023-02-28T05:32:56;54.93;;;31.63;;
739;SDS011;354;42.694;23.336;2023-02-28T05:35:23;53.40;;;32.67;;
739;SDS011;354;42.694;23.336;2023-02-28T05:37:49;54.43;;;34.10;;
739;SDS011;354;42.694;23.336;2023-02-28T05:40:14;50.73;;;34.17;;
739;SDS011;354;42.694;23.336;2023-02-28T05:42:40;53.87;;;34.70;;
739;SDS011;354;42.694;23.336;2023-02-28T05:45:06;53.67;;;33.93;;
739;SDS011;354;42.694;23.336;2023-02-28T05:47:32;58.33;;;32.53;;
739;SDS011;354;42.694;23.336;2023-02-28T05:49:57;55.20;;;32.33;;
739;SDS011;354;42.694;23.336;2023-02-28T05:52:23;56.07;;;31.80;;
739;SDS011;354;42.694;23.336;2023-02-28T05:54:48;54.90;;;33.73;;
739;SDS011;354;42.694;23.336;2023-02-28T05:57:14;58.13;;;34.53;;
739;SDS011;354;42.694;23.336;2023-02-28T05:59:40;71.47;;;40.93;;
739;SDS011;354;42.694;23.336;2023-02-28T06:02:06;62.00;;;36.20;;
739;SDS011;354;42.694;23.336;2023-02-28T06:04:37;62.80;;;38.10;;
739;SDS011;354;42.694;23.336;2023-02-28T06:07:02;63.73;;;38.30;;
739;SDS011;354;42.694;23.336;2023-02-28T06:09:28;63.00;;;37.33;;
739;SDS011;354;42.694;23.336;2023-02-28T06:11:54;70.20;;;37.73;;
739;SDS011;354;42.694;23.336;2023-02-28T06:14:19;58.30;;;34.97;;
739;SDS011;354;42.694;23.336;2023-02-28T06:16:45;64.87;;;36.20;;
739;SDS011;354;42.694;23.336;2023-02-28T06:19:11;56.40;;;33.67;;
739;SDS011;354;42.694;23.336;2023-02-28T06:21:37;63.77;;;36.17;;
739;SDS011;354;42.694;23.336;2023-02-28T06:24:03;58.80;;;35.40;;
739;SDS011;354;42.694;23.336;2023-02-28T06:26:29;62.33;;;40.13;;
739;SDS011;354;42.694;23.336;2023-02-28T06:28:54;49.67;;;30.90;;
739;SDS011;354;42.694;23.336;2023-02-28T06:31:20;49.00;;;31.23;;
739;SDS011;354;42.694;23.336;2023-02-28T06:33:47;53.40;;;31.37;;
739;SDS011;354;42.694;23.336;2023-02-28T06:36:14;49.37;;;30.53;;
739;SDS011;354;42.694;23.336;2023-02-28T06:38:40;42.37;;;27.33;;
739;SDS011;354;42.694;23.336;2023-02-28T06:41:06;43.60;;;28.10;;
739;SDS011;354;42.694;23.336;2023-02-28T06:43:32;45.33;;;28.87;;
739;SDS011;354;42.694;23.336;2023-02-28T06:46:00;42.07;;;28.87;;
739;SDS011;354;42.694;23.336;2023-02-28T06:48:28;51.07;;;31.70;;
739;SDS011;354;42.694;23.336;2023-02-28T06:51:07;51.33;;;30.07;;
739;SDS011;354;42.694;23.336;2023-02-28T06:53:38;48.50;;;29.70;;
739;SDS011;354;42.694;23.336;2023-02-28T06:56:05;48.97;;;31.17;;
739;SDS011;354;42.694;23.336;2023-02-28T06:58:31;52.17;;;31.80;;
739;SDS011;354;42.694;23.336;2023-02-28T07:00:56;48.50;;;30.20;;
739;SDS011;354;42.694;23.336;2023-02-28T07:03:22;55.57;;;31.33;;
739;SDS011;354;42.694;23.336;2023-02-28T07:05:48;49.87;;;30.80;;
739;SDS011;354;42.694;23.336;2023-02-28T07:08:13;51.63;;;30.87;;
739;SDS011;354;42.694;23.336;2023-02-28T07:10:39;54.57;;;32.60;;
739;SDS011;354;42.694;23.336;2023-02-28T07:13:06;48.10;;;29.20;;
739;SDS011;354;42.694;23.336;2023-02-28T07:15:32;54.60;;;32.77;;
739;SDS011;354;42.694;23.336;2023-02-28T07:17:58;53.17;;;33.43;;
739;SDS011;354;42.694;23.336;2023-02-28T07:20:23;48.53;;;31.37;;
739;SDS011;354;42.694;23.336;2023-02-28T07:22:50;55.07;;;32.77;;
739;SDS011;354;42.694;23.336;2023-02-28T07:25:24;51.37;;;30.80;;
739;SDS011;354;42.694;23.336;2023-02-28T07:27:51;51.63;;;32.23;;
739;SDS011;354;42.694;23.336;2023-02-28T07:30:17;59.13;;;38.97;;
739;SDS011;354;42.694;23.336;2023-02-28T07:32:43;47.63;;;31.73;;
739;SDS011;354;42.694;23.336;2023-02-28T07:35:08;48.07;;;32.17;;
739;SDS011;354;42.694;23.336;2023-02-28T07:37:34;49.10;;;32.10;;
739;SDS011;354;42.694;23.336;2023-02-28T07:40:02;44.47;;;30.50;;
739;SDS011;354;42.694;23.336;2023-02-28T07:42:31;43.93;;;29.27;;
739;SDS011;354;42.694;23.336;2023-02-28T07:44:57;42.43;;;30.73;;
739;SDS011;354;42.694;23.336;2023-02-28T07:47:22;42.57;;;30.17;;
739;SDS011;354;42.694;23.336;2023-02-28T07:49:47;43.57;;;29.43;;
739;SDS011;354;42.694;23.336;2023-02-28T07:52:13;44.57;;;29.97;;
739;SDS011;354;42.694;23.336;2023-02-28T07:54:38;47.93;;;31.23;;
739;SDS011;354;42.694;23.336;2023-02-28T07:57:03;50.63;;;34.93;;
739;SDS011;354;42.694;23.336;2023-02-28T07:59:29;54.77;;;35.30;;
739;SDS011;354;42.694;23.336;2023-02-28T08:01:54;41.97;;;29.90;;
739;SDS011;354;42.694;23.336;2023-02-28T08:04:22;39.83;;;28.77;;
739;SDS011;354;42.694;23.336;2023-02-28T08:06:47;44.07;;;30.30;;
739;SDS011;354;42.694;23.336;2023-02-28T08:09:13;42.80;;;29.37;;
739;SDS011;354;42.694;23.336;2023-02-28T08:11:39;41.37;;;31.33;;
739;SDS011;354;42.694;23.336;2023-02-28T08:14:04;39.77;;;27.87;;
739;SDS011;354;42.694;23.336;2023-02-28T08:16:30;39.93;;;28.20;;
739;SDS011;354;42.694;23.336;2023-02-28T08:18:56;43.97;;;30.40;;
739;SDS011;354;42.694;23.336;2023-02-28T08:21:21;44.13;;;29.90;;
739;SDS011;354;42.694;23.336;2023-02-28T08:23:47;38.00;;;27.10;;
739;SDS011;354;42.694;23.336;2023-02-28T08:26:14;37.20;;;26.03;;
739;SDS011;354;42.694;23.336;2023-02-28T08:28:40;38.90;;;26.10;;
739;SDS011;354;42.694;23.336;2023-02-28T08:31:09;46.40;;;32.10;;
739;SDS011;354;42.694;23.336;2023-02-28T08:33:36;37.07;;;29.20;;
739;SDS011;354;42.694;23.336;2023-02-28T08:36:02;42.30;;;34.23;;
739;SDS011;354;42.694;23.336;2023-02-28T08:38:27;38.90;;;28.60;;
739;SDS011;354;42.694;23.336;2023-02-28T08:41:04;38.07;;;27.67;;
739;SDS011;354;42.694;23.336;2023-02-28T08:43:32;37.83;;;27.67;;
739;SDS011;354;42.694;23.336;2023-02-28T08:45:59;34.27;;;25.97;;
739;SDS011;354;42.694;23.336;2023-02-28T08:48:25;35.50;;;26.67;;
739;SDS011;354;42.694;23.336;2023-02-28T08:50:58;33.53;;;27.13;;
739;SDS011;354;42.694;23.336;2023-02-28T08:53:24;41.97;;;28.10;;
739;SDS011;354;42.694;23.336;2023-02-28T08:56:00;37.43;;;24.80;;
739;SDS011;354;42.694;23.336;2023-02-28T08:58:30;37.77;;;26.50;;
739;SDS011;354;42.694;23.336;2023-02-28T09:00:56;33.97;;;23.33;;
739;SDS011;354;42.694;23.336;2023-02-28T09:03:21;33.13;;;22.20;;
739;SDS011;354;42.694;23.336;2023-02-28T09:05:54;26.63;;;20.10;;
739;SDS011;354;42.694;23.336;2023-02-28T09:08:21;26.07;;;18.50;;
739;SDS011;354;42.694;23.336;2023-02-28T09:10:47;25.50;;;18.47;;
739;SDS011;354;42.694;23.336;2023-02-28T09:13:12;30.83;;;22.97;;
739;SDS011;354;42.694;23.336;2023-02-28T09:15:38;23.50;;;18.90;;
739;SDS011;354;42.694;23.336;2023-02-28T09:18:03;27.17;;;18.27;;
739;SDS011;354;42.694;23.336;2023-02-28T09:20:29;26.50;;;18.40;;
739;SDS011;354;42.694;23.336;2023-02-28T09:22:54;26.70;;;17.67;;
739;SDS011;354;42.694;23.336;2023-02-28T09:25:20;27.93;;;18.40;;
739;SDS011;354;42.694;23.336;2023-02-28T09:27:46;26.30;;;18.23;;
739;SDS011;354;42.694;23.336;2023-02-28T09:30:11;24.87;;;18.27;;
739;SDS011;354;42.694;23.336;2023-02-28T09:32:37;26.97;;;19.10;;
739;SDS011;354;42.694;23.336;2023-02-28T09:35:03;25.83;;;18.37;;
739;SDS011;354;42.694;23.336;2023-02-28T09:37:29;28.50;;;18.60;;
739;SDS011;354;42.694;23.336;2023-02-28T09:39:56;21.57;;;15.60;;
739;SDS011;354;42.694;23.336;2023-02-28T09:42:23;26.83;;;17.00;;
739;SDS011;354;42.694;23.336;2023-02-28T09:44:56;21.60;;;15.77;;
739;SDS011;354;42.694;23.336;2023-02-28T09:47:44;20.40;;;16.73;;
739;SDS011;354;42.694;23.336;2023-02-28T09:52:51;22.37;;;16.77;;
739;SDS011;354;42.694;23.336;2023-02-28T09:58:16;21.13;;;15.27;;
739;SDS011;354;42.694;23.336;2023-02-28T10:01:09;20.80;;;14.10;;
739;SDS011;354;42.694;23.336;2023-02-28T10:04:29;22.07;;;15.30;;
739;SDS011;354;42.694;23.336;2023-02-28T10:06:48;28.47;;;19.60;;
739;SDS011;354;42.694;23.336;2023-02-28T10:09:25;26.63;;;15.87;;
739;SDS011;354;42.694;23.336;2023-02-28T10:11:56;26.98;;;19.63;;
739;SDS011;354;42.694;23.336;2023-02-28T10:14:28;22.10;;;17.43;;
739;SDS011;354;42.694;23.336;2023-02-28T10:16:59;19.83;;;15.13;;
739;SDS011;354;42.694;23.336;2023-02-28T10:19:31;19.43;;;13.47;;
739;SDS011;354;42.694;23.336;2023-02-28T10:22:08;19.53;;;13.73;;
739;SDS011;354;42.694;23.336;2023-02-28T10:24:44;22.10;;;13.87;;
739;SDS011;354;42.694;23.336;2023-02-28T10:27:15;22.40;;;14.37;;
739;SDS011;354;42.694;23.336;2023-02-28T10:29:44;23.63;;;15.07;;
739;SDS011;354;42.694;23.336;2023-02-28T10:32:18;23.90;;;14.27;;
739;SDS011;354;42.694;23.336;2023-02-28T10:37:25;17.47;;;12.03;;
739;SDS011;354;42.694;23.336;2023-02-28T10:39:51;19.77;;;12.77;;
739;SDS011;354;42.694;23.336;2023-02-28T10:42:27;23.53;;;13.53;;
739;SDS011;354;42.694;23.336;2023-02-28T10:47:49;25.00;;;15.00;;
739;SDS011;354;42.694;23.336;2023-02-28T10:50:30;23.50;;;13.77;;
739;SDS011;354;42.694;23.336;2023-02-28T10:56:00;18.57;;;13.97;;
739;SDS011;354;42.694;23.336;2023-02-28T11:01:14;21.37;;;13.30;;
739;SDS011;354;42.694;23.336;2023-02-28T11:03:45;28.50;;;14.53;;
739;SDS011;354;42.694;23.336;2023-02-28T11:06:16;21.03;;;14.40;;
739;SDS011;354;42.694;23.336;2023-02-28T11:08:45;24.97;;;15.20;;
739;SDS011;354;42.694;23.336;2023-02-28T11:11:16;22.80;;;14.70;;
739;SDS011;354;42.694;23.336;2023-02-28T11:13:44;19.57;;;13.63;;
739;SDS011;354;42.694;23.336;2023-02-28T11:16:12;22.90;;;16.87;;
739;SDS011;354;42.694;23.336;2023-02-28T11:21:07;23.67;;;16.83;;
739;SDS011;354;42.694;23.336;2023-02-28T11:23:35;24.27;;;15.73;;
739;SDS011;354;42.694;23.336;2023-02-28T11:26:05;25.37;;;17.10;;
739;SDS011;354;42.694;23.336;2023-02-28T11:28:36;22.80;;;14.30;;
739;SDS011;354;42.694;23.336;2023-02-28T11:36:23;25.47;;;14.67;;
739;SDS011;354;42.694;23.336;2023-02-28T11:38:53;28.10;;;16.77;;
739;SDS011;354;42.694;23.336;2023-02-28T11:46:58;22.23;;;15.60;;
739;SDS011;354;42.694;23.336;2023-02-28T11:49:30;22.30;;;14.50;;
739;SDS011;354;42.694;23.336;2023-02-28T11:52:02;26.60;;;14.93;;
739;SDS011;354;42.694;23.336;2023-02-28T12:00:57;28.93;;;14.53;;
739;SDS011;354;42.694;23.336;2023-02-28T12:07:00;26.83;;;16.60;;
739;SDS011;354;42.694;23.336;2023-02-28T12:28:26;18.40;;;13.63;;
739;SDS011;354;42.694;23.336;2023-02-28T12:34:06;22.50;;;13.90;;
739;SDS011;354;42.694;23.336;2023-02-28T12:36:36;19.47;;;13.13;;
739;SDS011;354;42.694;23.336;2023-02-28T12:41:53;18.90;;;13.00;;
739;SDS011;354;42.694;23.336;2023-02-28T12:44:29;21.23;;;12.17;;
739;SDS011;354;42.694;23.336;2023-02-28T12:47:03;20.87;;;14.70;;
739;SDS011;354;42.694;23.336;2023-02-28T12:49:33;19.87;;;13.50;;
739;SDS011;354;42.694;23.336;2023-02-28T12:52:03;20.67;;;11.80;;
739;SDS011;354;42.694;23.336;2023-02-28T12:57:18;18.73;;;11.83;;
739;SDS011;354;42.694;23.336;2023-02-28T13:00:16;22.87;;;13.53;;
739;SDS011;354;42.694;23.336;2023-02-28T13:10:39;22.67;;;13.40;;
739;SDS011;354;42.694;23.336;2023-02-28T13:13:05;21.23;;;12.27;;
739;SDS011;354;42.694;23.336;2023-02-28T13:15:30;25.20;;;13.87;;
739;SDS011;354;42.694;23.336;2023-02-28T13:18:00;23.73;;;12.80;;
739;SDS011;354;42.694;23.336;2023-02-28T13:20:27;20.33;;;12.50;;
739;SDS011;354;42.694;23.336;2023-02-28T13:26:08;15.27;;;10.30;;
739;SDS011;354;42.694;23.336;2023-02-28T13:29:36;22.50;;;13.03;;
739;SDS011;354;42.694;23.336;2023-02-28T13:34:34;22.67;;;13.67;;
739;SDS011;354;42.694;23.336;2023-02-28T13:42:36;22.70;;;12.97;;
739;SDS011;354;42.694;23.336;2023-02-28T13:45:24;19.57;;;15.37;;
739;SDS011;354;42.694;23.336;2023-02-28T13:47:52;21.13;;;12.33;;
739;SDS011;354;42.694;23.336;2023-02-28T13:55:31;18.67;;;12.73;;
739;SDS011;354;42.694;23.336;2023-02-28T13:58:24;22.33;;;13.30;;
739;SDS011;354;42.694;23.336;2023-02-28T14:06:26;18.27;;;12.00;;
739;SDS011;354;42.694;23.336;2023-02-28T14:11:42;20.90;;;13.50;;
739;SDS011;354;42.694;23.336;2023-02-28T14:14:09;22.30;;;13.27;;
739;SDS011;354;42.694;23.336;2023-02-28T14:16:55;18.90;;;12.60;;
739;SDS011;354;42.694;23.336;2023-02-28T14:19:24;18.87;;;13.10;;
739;SDS011;354;42.694;23.336;2023-02-28T14:27:24;18.87;;;12.77;;
739;SDS011;354;42.694;23.336;2023-02-28T14:37:58;26.73;;;13.57;;
739;SDS011;354;42.694;23.336;2023-02-28T14:40:30;19.43;;;12.87;;
739;SDS011;354;42.694;23.336;2023-02-28T14:43:01;19.60;;;13.17;;
739;SDS011;354;42.694;23.336;2023-02-28T14:45:32;17.93;;;12.80;;
739;SDS011;354;42.694;23.336;2023-02-28T14:47:59;17.33;;;12.63;;
739;SDS011;354;42.694;23.336;2023-02-28T14:50:30;21.93;;;12.47;;
739;SDS011;354;42.694;23.336;2023-02-28T14:53:00;20.10;;;12.83;;
739;SDS011;354;42.694;23.336;2023-02-28T14:55:28;22.57;;;15.37;;
739;SDS011;354;42.694;23.336;2023-02-28T14:57:57;25.47;;;13.63;;
739;SDS011;354;42.694;23.336;2023-02-28T15:00:26;21.60;;;13.13;;
739;SDS011;354;42.694;23.336;2023-02-28T15:02:55;21.33;;;13.20;;
739;SDS011;354;42.694;23.336;2023-02-28T15:05:24;17.60;;;12.30;;
739;SDS011;354;42.694;23.336;2023-02-28T15:08:00;17.93;;;12.43;;
739;SDS011;354;42.694;23.336;2023-02-28T15:10:31;20.33;;;13.53;;
739;SDS011;354;42.694;23.336;2023-02-28T15:13:05;17.70;;;12.67;;
739;SDS011;354;42.694;23.336;2023-02-28T15:15:43;22.70;;;13.77;;
739;SDS011;354;42.694;23.336;2023-02-28T15:18:21;21.37;;;12.30;;
739;SDS011;354;42.694;23.336;2023-02-28T15:20:54;21.93;;;12.70;;
739;SDS011;354;42.694;23.336;2023-02-28T15:23:22;20.20;;;13.43;;
739;SDS011;354;42.694;23.336;2023-02-28T15:25:48;24.30;;;13.57;;
739;SDS011;354;42.694;23.336;2023-02-28T15:28:17;15.27;;;11.80;;
739;SDS011;354;42.694;23.336;2023-02-28T15:31:21;15.47;;;12.40;;
739;SDS011;354;42.694;23.336;2023-02-28T15:34:03;16.60;;;13.27;;
739;SDS011;354;42.694;23.336;2023-02-28T15:36:30;16.67;;;13.90;;
739;SDS011;354;42.694;23.336;2023-02-28T15:38:59;19.57;;;14.23;;
739;SDS011;354;42.694;23.336;2023-02-28T15:41:46;22.40;;;14.40;;
739;SDS011;354;42.694;23.336;2023-02-28T15:44:18;20.13;;;14.60;;
739;SDS011;354;42.694;23.336;2023-02-28T15:46:57;17.83;;;13.93;;
739;SDS011;354;42.694;23.336;2023-02-28T15:49:26;23.27;;;16.07;;
739;SDS011;354;42.694;23.336;2023-02-28T15:51:53;21.90;;;16.50;;
739;SDS011;354;42.694;23.336;2023-02-28T15:54:23;21.93;;;16.33;;
739;SDS011;354;42.694;23.336;2023-02-28T15:56:55;19.27;;;15.57;;
739;SDS011;354;42.694;23.336;2023-02-28T15:59:23;18.23;;;15.10;;
739;SDS011;354;42.694;23.336;2023-02-28T16:04:35;16.87;;;13.73;;
739;SDS011;354;42.694;23.336;2023-02-28T16:07:04;24.97;;;16.83;;
739;SDS011;354;42.694;23.336;2023-02-28T16:09:31;44.40;;;30.97;;
739;SDS011;354;42.694;23.336;2023-02-28T16:12:00;19.53;;;15.37;;
739;SDS011;354;42.694;23.336;2023-02-28T16:14:29;16.80;;;14.07;;
739;SDS011;354;42.694;23.336;2023-02-28T16:17:03;15.87;;;11.50;;
739;SDS011;354;42.694;23.336;2023-02-28T16:19:30;13.77;;;12.33;;
739;SDS011;354;42.694;23.336;2023-02-28T16:21:56;13.83;;;11.73;;
739;SDS011;354;42.694;23.336;2023-02-28T16:24:22;13.83;;;12.33;;
739;SDS011;354;42.694;23.336;2023-02-28T16:26:48;16.53;;;12.70;;
739;SDS011;354;42.694;23.336;2023-02-28T16:29:23;13.63;;;11.27;;
739;SDS011;354;42.694;23.336;2023-02-28T16:31:54;15.17;;;12.63;;
739;SDS011;354;42.694;23.336;2023-02-28T16:34:21;19.80;;;12.57;;
739;SDS011;354;42.694;23.336;2023-02-28T16:36:47;16.07;;;14.33;;
739;SDS011;354;42.694;23.336;2023-02-28T16:39:14;15.90;;;12.47;;
739;SDS011;354;42.694;23.336;2023-02-28T16:41:41;18.27;;;11.83;;
739;SDS011;354;42.694;23.336;2023-02-28T16:44:13;15.97;;;12.63;;
739;SDS011;354;42.694;23.336;2023-02-28T16:46:52;15.07;;;11.30;;
739;SDS011;354;42.694;23.336;2023-02-28T16:49:17;14.47;;;11.70;;
739;SDS011;354;42.694;23.336;2023-02-28T16:51:43;12.63;;;10.07;;
739;SDS011;354;42.694;23.336;2023-02-28T16:54:08;14.17;;;10.13;;
739;SDS011;354;42.694;23.336;2023-02-28T16:56:33;13.83;;;11.10;;
739;SDS011;354;42.694;23.336;2023-02-28T16:59:00;14.07;;;11.57;;
739;SDS011;354;42.694;23.336;2023-02-28T17:01:26;13.97;;;11.73;;
739;SDS011;354;42.694;23.336;2023-02-28T17:03:52;15.57;;;11.37;;
739;SDS011;354;42.694;23.336;2023-02-28T17:06:22;17.87;;;12.90;;
739;SDS011;354;42.694;23.336;2023-02-28T17:08:50;16.13;;;12.90;;
739;SDS011;354;42.694;23.336;2023-02-28T17:11:16;16.93;;;11.17;;
739;SDS011;354;42.694;23.336;2023-02-28T17:13:42;11.40;;;9.57;;
739;SDS011;354;42.694;23.336;2023-02-28T17:16:11;11.57;;;10.40;;
739;SDS011;354;42.694;23.336;2023-02-28T17:18:53;11.27;;;9.53;;
739;SDS011;354;42.694;23.336;2023-02-28T17:21:21;12.73;;;11.20;;
739;SDS011;354;42.694;23.336;2023-02-28T17:23:47;14.90;;;10.97;;
739;SDS011;354;42.694;23.336;2023-02-28T17:26:13;13.37;;;11.10;;
739;SDS011;354;42.694;23.336;2023-02-28T17:28:39;11.17;;;10.07;;
739;SDS011;354;42.694;23.336;2023-02-28T17:31:05;11.37;;;8.57;;
739;SDS011;354;42.694;23.336;2023-02-28T17:33:30;11.03;;;9.83;;
739;SDS011;354;42.694;23.336;2023-02-28T17:35:56;9.70;;;8.70;;
739;SDS011;354;42.694;23.336;2023-02-28T17:38:21;9.57;;;8.60;;
739;SDS011;354;42.694;23.336;2023-02-28T17:40:47;9.80;;;9.00;;